sensor_id;sensor_type;location;lat;lon;timestamp;pressure;altitude;pressure_sealevel;temperature;humidity
11672;BME280;5892;43.412;24.612;2022-12-07T00:00:35;100168.16;;;5.83;100.00
11672;BME280;5892;43.412;24.612;2022-12-07T00:03:02;100165.44;;;5.83;100.00
11672;BME280;5892;43.412;24.612;2022-12-07T00:05:29;100100.44;;;5.47;100.00
11672;BME280;5892;43.412;24.612;2022-12-07T00:07:57;100150.28;;;5.72;100.00
11672;BME280;5892;43.412;24.612;2022-12-07T00:10:24;100153.47;;;5.89;100.00
11672;BME280;5892;43.412;24.612;2022-12-07T00:12:51;100159.97;;;5.88;100.00
11672;BME280;5892;43.412;24.612;2022-12-07T00:15:18;100160.00;;;5.83;100.00
11672;BME280;5892;43.412;24.612;2022-12-07T00:17:46;100161.91;;;5.82;100.00
11672;BME280;5892;43.412;24.612;2022-12-07T00:20:13;100161.34;;;5.85;100.00
11672;BME280;5892;43.412;24.612;2022-12-07T00:22:40;100159.72;;;5.84;100.00
11672;BME280;5892;43.412;24.612;2022-12-07T00:25:07;100161.63;;;5.84;100.00
11672;BME280;5892;43.412;24.612;2022-12-07T00:27:34;100121.50;;;5.66;100.00
11672;BME280;5892;43.412;24.612;2022-12-07T00:30:01;100161.91;;;5.82;100.00
11672;BME280;5892;43.412;24.612;2022-12-07T00:32:28;100150.75;;;5.84;100.00
11672;BME280;5892;43.412;24.612;2022-12-07T00:34:56;100149.66;;;5.85;100.00
11672;BME280;5892;43.412;24.612;2022-12-07T00:37:23;100154.53;;;5.88;100.00
11672;BME280;5892;43.412;24.612;2022-12-07T00:39:50;100059.78;;;5.32;100.00
11672;BME280;5892;43.412;24.612;2022-12-07T00:42:16;100146.63;;;5.86;100.00
11672;BME280;5892;43.412;24.612;2022-12-07T00:44:43;100150.78;;;5.79;100.00
11672;BME280;5892;43.412;24.612;2022-12-07T00:47:10;100155.59;;;5.92;100.00
11672;BME280;5892;43.412;24.612;2022-12-07T00:49:37;100155.09;;;5.85;100.00
11672;BME280;5892;43.412;24.612;2022-12-07T00:52:05;100153.47;;;5.89;100.00
11672;BME280;5892;43.412;24.612;2022-12-07T00:54:32;100148.56;;;5.86;100.00
11672;BME280;5892;43.412;24.612;2022-12-07T00:56:59;100142.59;;;5.84;100.00
11672;BME280;5892;43.412;24.612;2022-12-07T00:59:26;100147.75;;;5.85;100.00
11672;BME280;5892;43.412;24.612;2022-12-07T01:01:53;100142.31;;;5.90;100.00
11672;BME280;5892;43.412;24.612;2022-12-07T01:04:19;100084.13;;;5.47;100.00
11672;BME280;5892;43.412;24.612;2022-12-07T01:06:46;100142.53;;;5.94;100.00
11672;BME280;5892;43.412;24.612;2022-12-07T01:09:15;100146.06;;;5.94;100.00
11672;BME280;5892;43.412;24.612;2022-12-07T01:11:42;100124.34;;;5.89;100.00
11672;BME280;5892;43.412;24.612;2022-12-07T01:14:09;100138.78;;;5.90;100.00
11672;BME280;5892;43.412;24.612;2022-12-07T01:16:36;100142.31;;;5.85;100.00
11672;BME280;5892;43.412;24.612;2022-12-07T01:19:05;100129.00;;;5.84;100.00
11672;BME280;5892;43.412;24.612;2022-12-07T01:21:34;100046.72;;;5.34;100.00
11672;BME280;5892;43.412;24.612;2022-12-07T01:24:03;100135.47;;;5.93;100.00
11672;BME280;5892;43.412;24.612;2022-12-07T01:26:32;100131.72;;;5.84;100.00
11672;BME280;5892;43.412;24.612;2022-12-07T01:28:59;100125.22;;;5.80;100.00
11672;BME280;5892;43.412;24.612;2022-12-07T01:31:27;100124.72;;;5.73;100.00
11672;BME280;5892;43.412;24.612;2022-12-07T01:33:56;100133.06;;;5.81;100.00
11672;BME280;5892;43.412;24.612;2022-12-07T01:36:25;100116.25;;;5.79;100.00
11672;BME280;5892;43.412;24.612;2022-12-07T01:38:55;100101.91;;;5.69;100.00
11672;BME280;5892;43.412;24.612;2022-12-07T01:41:24;100118.19;;;5.74;100.00
11672;BME280;5892;43.412;24.612;2022-12-07T01:44:14;100110.28;;;5.77;100.00
11672;BME280;5892;43.412;24.612;2022-12-07T01:46:43;100119.56;;;5.71;100.00
11672;BME280;5892;43.412;24.612;2022-12-07T01:49:14;100114.66;;;5.73;100.00
11672;BME280;5892;43.412;24.612;2022-12-07T01:51:43;100111.91;;;5.78;100.00
11672;BME280;5892;43.412;24.612;2022-12-07T01:54:12;100108.13;;;5.74;100.00
11672;BME280;5892;43.412;24.612;2022-12-07T01:56:44;100096.94;;;5.76;100.00
11672;BME280;5892;43.412;24.612;2022-12-07T01:59:16;100101.31;;;5.77;100.00
11672;BME280;5892;43.412;24.612;2022-12-07T02:01:44;100099.09;;;5.84;100.00
11672;BME280;5892;43.412;24.612;2022-12-07T02:04:12;100095.31;;;5.80;100.00
11672;BME280;5892;43.412;24.612;2022-12-07T02:06:39;100073.34;;;5.71;100.00
11672;BME280;5892;43.412;24.612;2022-12-07T02:09:07;100103.75;;;5.78;100.00
11672;BME280;5892;43.412;24.612;2022-12-07T02:11:34;100111.09;;;5.78;100.00
11672;BME280;5892;43.412;24.612;2022-12-07T02:14:01;100104.88;;;5.72;100.00
11672;BME280;5892;43.412;24.612;2022-12-07T02:16:36;100112.78;;;5.69;100.00
11672;BME280;5892;43.412;24.612;2022-12-07T02:19:31;100114.91;;;5.77;100.00
11672;BME280;5892;43.412;24.612;2022-12-07T02:22:11;100095.81;;;5.82;100.00
11672;BME280;5892;43.412;24.612;2022-12-07T02:24:48;100070.75;;;5.56;100.00
11672;BME280;5892;43.412;24.612;2022-12-07T02:27:36;100094.81;;;5.73;100.00
11672;BME280;5892;43.412;24.612;2022-12-07T02:30:08;100080.13;;;5.74;100.00
11672;BME280;5892;43.412;24.612;2022-12-07T02:32:43;100078.50;;;5.73;100.00
11672;BME280;5892;43.412;24.612;2022-12-07T02:35:15;100094.53;;;5.74;100.00
11672;BME280;5892;43.412;24.612;2022-12-07T02:37:50;100086.66;;;5.73;100.00
11672;BME280;5892;43.412;24.612;2022-12-07T02:40:24;100069.41;;;5.53;100.00
11672;BME280;5892;43.412;24.612;2022-12-07T02:42:57;100094.22;;;5.81;100.00
11672;BME280;5892;43.412;24.612;2022-12-07T02:45:28;100072.06;;;5.64;100.00
11672;BME280;5892;43.412;24.612;2022-12-07T02:48:00;100066.69;;;5.53;100.00
11672;BME280;5892;43.412;24.612;2022-12-07T02:50:27;100076.84;;;5.77;100.00
11672;BME280;5892;43.412;24.612;2022-12-07T02:52:55;100065.72;;;5.73;100.00
11672;BME280;5892;43.412;24.612;2022-12-07T02:55:26;100077.41;;;5.74;100.00
11672;BME280;5892;43.412;24.612;2022-12-07T02:58:09;100062.22;;;5.68;100.00
11672;BME280;5892;43.412;24.612;2022-12-07T03:00:46;100041.09;;;5.60;100.00
11672;BME280;5892;43.412;24.612;2022-12-07T03:03:17;100061.06;;;5.79;100.00
11672;BME280;5892;43.412;24.612;2022-12-07T03:05:58;100048.63;;;5.68;100.00
11672;BME280;5892;43.412;24.612;2022-12-07T03:08:36;100044.97;;;5.53;100.00
11672;BME280;5892;43.412;24.612;2022-12-07T03:11:06;100048.13;;;5.61;100.00
11672;BME280;5892;43.412;24.612;2022-12-07T03:13:39;100053.22;;;5.72;100.00
11672;BME280;5892;43.412;24.612;2022-12-07T03:16:14;100049.78;;;5.62;100.00
11672;BME280;5892;43.412;24.612;2022-12-07T03:18:45;100053.03;;;5.64;100.00
11672;BME280;5892;43.412;24.612;2022-12-07T03:21:16;100066.03;;;5.67;100.00
11672;BME280;5892;43.412;24.612;2022-12-07T03:23:47;100070.44;;;5.63;100.00
11672;BME280;5892;43.412;24.612;2022-12-07T03:26:17;100058.28;;;5.50;100.00
11672;BME280;5892;43.412;24.612;2022-12-07T03:28:50;100067.81;;;5.47;100.00
11672;BME280;5892;43.412;24.612;2022-12-07T03:31:22;100065.88;;;5.53;100.00
11672;BME280;5892;43.412;24.612;2022-12-07T03:33:57;100066.69;;;5.53;100.00
11672;BME280;5892;43.412;24.612;2022-12-07T03:36:29;100062.63;;;5.51;100.00
11672;BME280;5892;43.412;24.612;2022-12-07T03:39:02;100015.81;;;5.25;100.00
11672;BME280;5892;43.412;24.612;2022-12-07T03:41:31;100048.00;;;5.47;100.00
11672;BME280;5892;43.412;24.612;2022-12-07T03:44:00;100061.53;;;5.52;100.00
11672;BME280;5892;43.412;24.612;2022-12-07T03:46:35;100064.03;;;5.48;100.00
11672;BME280;5892;43.412;24.612;2022-12-07T03:49:08;100058.81;;;5.52;100.00
11672;BME280;5892;43.412;24.612;2022-12-07T03:51:41;100046.31;;;5.51;100.00
11672;BME280;5892;43.412;24.612;2022-12-07T03:54:15;100048.53;;;5.49;100.00
11672;BME280;5892;43.412;24.612;2022-12-07T03:56:46;100052.28;;;5.53;100.00
11672;BME280;5892;43.412;24.612;2022-12-07T03:59:14;100060.19;;;5.54;100.00
11672;BME280;5892;43.412;24.612;2022-12-07T04:01:44;100059.34;;;5.54;100.00
11672;BME280;5892;43.412;24.612;2022-12-07T04:04:11;100046.03;;;5.52;100.00
11672;BME280;5892;43.412;24.612;2022-12-07T04:06:38;100048.44;;;5.59;100.00
11672;BME280;5892;43.412;24.612;2022-12-07T04:09:05;100048.50;;;5.54;100.00
11672;BME280;5892;43.412;24.612;2022-12-07T04:11:32;100051.97;;;5.60;100.00
11672;BME280;5892;43.412;24.612;2022-12-07T04:13:59;100048.13;;;5.61;100.00
11672;BME280;5892;43.412;24.612;2022-12-07T04:16:44;100053.88;;;5.59;100.00
11672;BME280;5892;43.412;24.612;2022-12-07T04:19:11;100040.59;;;5.52;100.00
11672;BME280;5892;43.412;24.612;2022-12-07T04:21:39;100054.44;;;5.56;100.00
11672;BME280;5892;43.412;24.612;2022-12-07T04:24:06;100034.94;;;5.49;100.00
11672;BME280;5892;43.412;24.612;2022-12-07T04:26:33;100037.72;;;5.39;100.00
11672;BME280;5892;43.412;24.612;2022-12-07T04:29:00;100027.34;;;5.46;100.00
11672;BME280;5892;43.412;24.612;2022-12-07T04:31:26;100040.41;;;5.44;100.00
11672;BME280;5892;43.412;24.612;2022-12-07T04:33:55;100031.78;;;5.32;100.00
11672;BME280;5892;43.412;24.612;2022-12-07T04:36:22;99999.66;;;5.05;100.00
11672;BME280;5892;43.412;24.612;2022-12-07T04:38:48;100005.34;;;5.03;100.00
11672;BME280;5892;43.412;24.612;2022-12-07T04:41:15;99972.38;;;4.81;100.00
11672;BME280;5892;43.412;24.612;2022-12-07T04:43:42;100018.66;;;5.05;100.00
11672;BME280;5892;43.412;24.612;2022-12-07T04:46:09;100029.53;;;5.05;100.00
11672;BME280;5892;43.412;24.612;2022-12-07T04:48:36;100038.25;;;5.02;100.00
11672;BME280;5892;43.412;24.612;2022-12-07T04:51:05;100031.25;;;4.91;100.00
11672;BME280;5892;43.412;24.612;2022-12-07T04:53:32;100044.19;;;5.04;100.00
11672;BME280;5892;43.412;24.612;2022-12-07T04:55:58;100029.28;;;5.01;100.00
11672;BME280;5892;43.412;24.612;2022-12-07T04:58:26;100053.97;;;5.05;100.00
11672;BME280;5892;43.412;24.612;2022-12-07T05:00:54;100045.84;;;5.00;100.00
11672;BME280;5892;43.412;24.612;2022-12-07T05:03:21;100046.94;;;4.99;100.00
11672;BME280;5892;43.412;24.612;2022-12-07T05:05:48;100046.41;;;4.97;100.00
11672;BME280;5892;43.412;24.612;2022-12-07T05:08:16;100031.25;;;4.91;100.00
11672;BME280;5892;43.412;24.612;2022-12-07T05:10:44;100049.66;;;4.94;100.00
11672;BME280;5892;43.412;24.612;2022-12-07T05:13:11;100030.13;;;4.97;100.00
11672;BME280;5892;43.412;24.612;2022-12-07T05:15:37;100032.81;;;5.02;100.00
11672;BME280;5892;43.412;24.612;2022-12-07T05:18:04;100026.03;;;4.99;100.00
11672;BME280;5892;43.412;24.612;2022-12-07T05:20:31;100021.72;;;4.93;100.00
11672;BME280;5892;43.412;24.612;2022-12-07T05:22:58;100025.75;;;5.01;100.00
11672;BME280;5892;43.412;24.612;2022-12-07T05:25:26;100024.72;;;4.92;100.00
11672;BME280;5892;43.412;24.612;2022-12-07T05:27:54;100019.84;;;4.89;100.00
11672;BME280;5892;43.412;24.612;2022-12-07T05:30:22;100018.72;;;4.95;100.00
11672;BME280;5892;43.412;24.612;2022-12-07T05:32:49;100009.78;;;4.89;100.00
11672;BME280;5892;43.412;24.612;2022-12-07T05:35:16;100006.25;;;4.89;100.00
11672;BME280;5892;43.412;24.612;2022-12-07T05:37:43;99999.16;;;4.93;100.00
11672;BME280;5892;43.412;24.612;2022-12-07T05:40:11;100016.56;;;4.97;100.00
11672;BME280;5892;43.412;24.612;2022-12-07T05:42:40;99984.13;;;4.66;100.00
11672;BME280;5892;43.412;24.612;2022-12-07T05:45:08;100037.16;;;4.98;100.00
11672;BME280;5892;43.412;24.612;2022-12-07T05:47:36;100021.41;;;5.00;100.00
11672;BME280;5892;43.412;24.612;2022-12-07T05:50:05;100016.00;;;4.95;100.00
11672;BME280;5892;43.412;24.612;2022-12-07T05:52:32;100012.47;;;4.94;100.00
11672;BME280;5892;43.412;24.612;2022-12-07T05:54:59;99976.53;;;4.63;100.00
11672;BME280;5892;43.412;24.612;2022-12-07T05:57:26;100023.28;;;5.04;100.00
11672;BME280;5892;43.412;24.612;2022-12-07T05:59:54;100032.75;;;5.12;100.00
11672;BME280;5892;43.412;24.612;2022-12-07T06:02:20;100025.69;;;5.11;100.00
11672;BME280;5892;43.412;24.612;2022-12-07T06:04:47;100022.47;;;5.04;100.00
11672;BME280;5892;43.412;24.612;2022-12-07T06:07:15;100025.06;;;5.19;100.00
11672;BME280;5892;43.412;24.612;2022-12-07T06:09:44;100020.19;;;5.21;100.00
11672;BME280;5892;43.412;24.612;2022-12-07T06:12:11;99971.06;;;4.74;100.00
11672;BME280;5892;43.412;24.612;2022-12-07T06:14:58;100026.91;;;5.34;100.00
11672;BME280;5892;43.412;24.612;2022-12-07T06:17:24;100043.63;;;5.46;100.00
11672;BME280;5892;43.412;24.612;2022-12-07T06:19:51;100034.13;;;5.48;100.00
11672;BME280;5892;43.412;24.612;2022-12-07T06:22:18;100036.25;;;5.51;100.00
11672;BME280;5892;43.412;24.612;2022-12-07T06:24:45;100038.75;;;5.48;100.00
11672;BME280;5892;43.412;24.612;2022-12-07T06:27:13;100033.66;;;5.36;100.00
11672;BME280;5892;43.412;24.612;2022-12-07T06:29:39;100037.16;;;5.42;100.00
11672;BME280;5892;43.412;24.612;2022-12-07T06:32:08;100030.94;;;5.36;100.00
11672;BME280;5892;43.412;24.612;2022-12-07T06:34:35;100016.75;;;5.05;100.00
11672;BME280;5892;43.412;24.612;2022-12-07T06:37:02;100049.41;;;5.34;100.00
11672;BME280;5892;43.412;24.612;2022-12-07T06:39:29;100021.16;;;5.35;100.00
11672;BME280;5892;43.412;24.612;2022-12-07T06:41:57;100005.22;;;5.24;100.00
11672;BME280;5892;43.412;24.612;2022-12-07T06:44:24;100033.69;;;5.31;100.00
11672;BME280;5892;43.412;24.612;2022-12-07T06:46:53;100036.97;;;5.33;100.00
11672;BME280;5892;43.412;24.612;2022-12-07T06:49:22;100036.34;;;5.41;100.00
11672;BME280;5892;43.412;24.612;2022-12-07T06:51:48;100014.31;;;5.43;100.00
11672;BME280;5892;43.412;24.612;2022-12-07T06:54:16;100040.06;;;5.50;100.00
11672;BME280;5892;43.412;24.612;2022-12-07T06:56:42;100048.13;;;5.61;100.00
11672;BME280;5892;43.412;24.612;2022-12-07T06:59:10;100046.97;;;5.72;100.00
11672;BME280;5892;43.412;24.612;2022-12-07T07:01:36;100024.56;;;5.51;100.00
11672;BME280;5892;43.412;24.612;2022-12-07T07:04:04;100052.41;;;5.72;100.00
11672;BME280;5892;43.412;24.612;2022-12-07T07:06:32;100048.00;;;5.47;100.00
11672;BME280;5892;43.412;24.612;2022-12-07T07:08:59;100020.84;;;5.42;100.00
11672;BME280;5892;43.412;24.612;2022-12-07T07:11:26;100049.72;;;5.67;100.00
11672;BME280;5892;43.412;24.612;2022-12-07T07:13:53;100056.16;;;5.81;100.00
11672;BME280;5892;43.412;24.612;2022-12-07T07:16:22;100060.19;;;5.83;100.00
11672;BME280;5892;43.412;24.612;2022-12-07T07:18:49;100060.75;;;5.85;100.00
11672;BME280;5892;43.412;24.612;2022-12-07T07:21:16;100055.47;;;5.99;100.00
11672;BME280;5892;43.412;24.612;2022-12-07T07:23:44;100057.91;;;6.01;100.00
11672;BME280;5892;43.412;24.612;2022-12-07T07:26:11;100057.56;;;6.07;100.00
11672;BME280;5892;43.412;24.612;2022-12-07T07:28:38;100055.94;;;6.06;100.00
11672;BME280;5892;43.412;24.612;2022-12-07T07:31:06;100057.03;;;6.05;100.00
11672;BME280;5892;43.412;24.612;2022-12-07T07:33:33;100052.44;;;6.29;100.00
11672;BME280;5892;43.412;24.612;2022-12-07T07:35:59;100049.91;;;6.38;100.00
11672;BME280;5892;43.412;24.612;2022-12-07T07:38:27;100050.56;;;6.54;100.00
11672;BME280;5892;43.412;24.612;2022-12-07T07:40:55;100038.19;;;6.61;100.00
11672;BME280;5892;43.412;24.612;2022-12-07T07:43:22;100040.16;;;6.56;100.00
11672;BME280;5892;43.412;24.612;2022-12-07T07:45:48;100032.28;;;6.54;100.00
11672;BME280;5892;43.412;24.612;2022-12-07T07:48:16;100045.75;;;6.69;100.00
11672;BME280;5892;43.412;24.612;2022-12-07T07:50:43;100047.06;;;6.72;100.00
11672;BME280;5892;43.412;24.612;2022-12-07T07:53:09;100032.88;;;6.75;100.00
11672;BME280;5892;43.412;24.612;2022-12-07T07:55:36;100044.06;;;6.92;100.00
11672;BME280;5892;43.412;24.612;2022-12-07T07:58:05;100049.44;;;6.97;100.00
11672;BME280;5892;43.412;24.612;2022-12-07T08:00:31;100039.47;;;7.11;100.00
11672;BME280;5892;43.412;24.612;2022-12-07T08:02:58;100046.09;;;7.05;100.00
11672;BME280;5892;43.412;24.612;2022-12-07T08:05:25;100040.84;;;7.28;100.00
11672;BME280;5892;43.412;24.612;2022-12-07T08:07:52;100047.91;;;7.47;100.00
11672;BME280;5892;43.412;24.612;2022-12-07T08:10:19;100045.25;;;7.61;100.00
11672;BME280;5892;43.412;24.612;2022-12-07T08:12:46;100043.44;;;7.70;100.00
11672;BME280;5892;43.412;24.612;2022-12-07T08:15:32;100032.53;;;7.70;100.00
11672;BME280;5892;43.412;24.612;2022-12-07T08:17:59;100039.81;;;7.75;100.00
11672;BME280;5892;43.412;24.612;2022-12-07T08:20:26;100036.59;;;7.73;100.00
11672;BME280;5892;43.412;24.612;2022-12-07T08:22:52;100043.69;;;7.74;100.00
11672;BME280;5892;43.412;24.612;2022-12-07T08:25:20;100036.16;;;7.84;100.00
11672;BME280;5892;43.412;24.612;2022-12-07T08:27:47;100043.16;;;8.04;100.00
11672;BME280;5892;43.412;24.612;2022-12-07T08:30:15;100035.97;;;8.08;100.00
11672;BME280;5892;43.412;24.612;2022-12-07T08:32:44;100036.19;;;8.12;100.00
11672;BME280;5892;43.412;24.612;2022-12-07T08:35:11;100031.03;;;8.10;100.00
11672;BME280;5892;43.412;24.612;2022-12-07T08:37:44;100024.53;;;8.06;100.00
11672;BME280;5892;43.412;24.612;2022-12-07T08:40:12;100026.69;;;7.95;100.00
11672;BME280;5892;43.412;24.612;2022-12-07T08:42:41;100028.78;;;7.98;100.00
11672;BME280;5892;43.412;24.612;2022-12-07T08:45:09;100030.00;;;8.06;100.00
11672;BME280;5892;43.412;24.612;2022-12-07T08:47:40;100013.25;;;8.13;100.00
11672;BME280;5892;43.412;24.612;2022-12-07T08:50:10;100023.97;;;8.23;100.00
11672;BME280;5892;43.412;24.612;2022-12-07T08:52:39;100009.13;;;8.15;100.00
11672;BME280;5892;43.412;24.612;2022-12-07T08:55:07;100018.75;;;8.26;100.00
11672;BME280;5892;43.412;24.612;2022-12-07T08:57:36;100009.41;;;8.14;100.00
11672;BME280;5892;43.412;24.612;2022-12-07T09:00:04;99993.03;;;8.00;100.00
11672;BME280;5892;43.412;24.612;2022-12-07T09:02:31;100004.66;;;8.05;100.00
11672;BME280;5892;43.412;24.612;2022-12-07T09:05:00;100018.91;;;8.02;100.00
11672;BME280;5892;43.412;24.612;2022-12-07T09:07:29;100013.25;;;7.99;100.00
11672;BME280;5892;43.412;24.612;2022-12-07T09:09:57;99983.78;;;7.82;100.00
11672;BME280;5892;43.412;24.612;2022-12-07T09:12:24;100007.59;;;8.23;100.00
11672;BME280;5892;43.412;24.612;2022-12-07T09:14:50;99996.56;;;8.14;100.00
11672;BME280;5892;43.412;24.612;2022-12-07T09:17:20;99979.41;;;8.14;100.00
11672;BME280;5892;43.412;24.612;2022-12-07T09:19:47;99964.94;;;7.99;100.00
11672;BME280;5892;43.412;24.612;2022-12-07T09:22:14;99997.31;;;8.33;100.00
11672;BME280;5892;43.412;24.612;2022-12-07T09:24:43;99965.53;;;8.24;100.00
11672;BME280;5892;43.412;24.612;2022-12-07T09:27:10;99901.44;;;7.80;100.00
11672;BME280;5892;43.412;24.612;2022-12-07T09:29:37;99987.22;;;8.47;100.00
11672;BME280;5892;43.412;24.612;2022-12-07T09:32:05;99985.00;;;8.63;100.00
11672;BME280;5892;43.412;24.612;2022-12-07T09:34:32;99933.03;;;8.41;100.00
11672;BME280;5892;43.412;24.612;2022-12-07T09:37:00;99977.38;;;8.74;100.00
11672;BME280;5892;43.412;24.612;2022-12-07T09:39:28;99978.97;;;8.75;100.00
11672;BME280;5892;43.412;24.612;2022-12-07T09:41:57;99972.28;;;8.81;100.00
11672;BME280;5892;43.412;24.612;2022-12-07T09:44:25;99942.28;;;8.67;100.00
11672;BME280;5892;43.412;24.612;2022-12-07T09:46:53;99971.66;;;8.98;100.00
11672;BME280;5892;43.412;24.612;2022-12-07T09:49:21;99959.31;;;9.00;100.00
11672;BME280;5892;43.412;24.612;2022-12-07T09:52:00;99954.75;;;8.96;100.00
11672;BME280;5892;43.412;24.612;2022-12-07T09:54:29;99940.84;;;8.83;100.00
11672;BME280;5892;43.412;24.612;2022-12-07T09:56:58;99963.56;;;8.92;100.00
11672;BME280;5892;43.412;24.612;2022-12-07T09:59:26;99960.66;;;9.11;100.00
11672;BME280;5892;43.412;24.612;2022-12-07T10:01:53;99945.09;;;9.34;100.00
11672;BME280;5892;43.412;24.612;2022-12-07T10:04:21;99926.34;;;9.19;100.00
11672;BME280;5892;43.412;24.612;2022-12-07T10:06:49;99939.75;;;9.29;100.00
11672;BME280;5892;43.412;24.612;2022-12-07T10:09:18;99940.31;;;9.40;100.00
11672;BME280;5892;43.412;24.612;2022-12-07T10:12:04;99928.81;;;9.29;100.00
11672;BME280;5892;43.412;24.612;2022-12-07T10:14:32;99935.94;;;9.39;100.00
11672;BME280;5892;43.412;24.612;2022-12-07T10:17:00;99891.78;;;9.01;100.00
11672;BME280;5892;43.412;24.612;2022-12-07T10:19:30;99878.75;;;9.20;100.00
11672;BME280;5892;43.412;24.612;2022-12-07T10:22:09;99921.81;;;9.67;100.00
11672;BME280;5892;43.412;24.612;2022-12-07T10:24:39;99921.31;;;9.65;100.00
11672;BME280;5892;43.412;24.612;2022-12-07T10:27:18;99908.88;;;9.59;100.00
11672;BME280;5892;43.412;24.612;2022-12-07T10:29:48;99909.59;;;9.73;100.00
11672;BME280;5892;43.412;24.612;2022-12-07T10:32:30;99904.94;;;9.74;100.00
11672;BME280;5892;43.412;24.612;2022-12-07T10:35:32;99910.59;;;9.77;100.00
11672;BME280;5892;43.412;24.612;2022-12-07T10:37:59;99900.91;;;9.71;100.00
11672;BME280;5892;43.412;24.612;2022-12-07T10:40:30;99890.03;;;9.58;100.00
11672;BME280;5892;43.412;24.612;2022-12-07T10:43:17;99881.91;;;9.66;100.00
11672;BME280;5892;43.412;24.612;2022-12-07T10:46:13;99875.75;;;9.61;100.00
11672;BME280;5892;43.412;24.612;2022-12-07T10:48:52;99827.09;;;9.49;100.00
11672;BME280;5892;43.412;24.612;2022-12-07T10:51:27;99871.94;;;9.70;100.00
11672;BME280;5892;43.412;24.612;2022-12-07T10:54:03;99871.56;;;9.63;100.00
11672;BME280;5892;43.412;24.612;2022-12-07T10:56:59;99871.28;;;9.73;100.00
11672;BME280;5892;43.412;24.612;2022-12-07T10:59:55;99856.78;;;9.64;100.00
11672;BME280;5892;43.412;24.612;2022-12-07T11:02:41;99868.53;;;9.65;100.00
11672;BME280;5892;43.412;24.612;2022-12-07T11:05:20;99860.19;;;9.70;100.00
11672;BME280;5892;43.412;24.612;2022-12-07T11:08:00;99830.75;;;9.67;100.00
11672;BME280;5892;43.412;24.612;2022-12-07T11:10:38;99822.53;;;9.67;100.00
11672;BME280;5892;43.412;24.612;2022-12-07T11:13:22;99861.22;;;9.83;100.00
11672;BME280;5892;43.412;24.612;2022-12-07T11:16:11;99859.06;;;9.71;100.00
11672;BME280;5892;43.412;24.612;2022-12-07T11:18:51;99850.06;;;9.70;100.00
11672;BME280;5892;43.412;24.612;2022-12-07T11:21:27;99816.81;;;9.46;100.00
11672;BME280;5892;43.412;24.612;2022-12-07T11:24:01;99809.16;;;9.26;100.00
11672;BME280;5892;43.412;24.612;2022-12-07T11:26:42;99841.19;;;9.65;100.00
11672;BME280;5892;43.412;24.612;2022-12-07T11:29:36;99838.03;;;9.49;100.00
11672;BME280;5892;43.412;24.612;2022-12-07T11:32:15;99835.09;;;9.37;100.00
11672;BME280;5892;43.412;24.612;2022-12-07T11:34:54;99828.47;;;9.29;100.00
11672;BME280;5892;43.412;24.612;2022-12-07T11:37:28;99827.47;;;9.25;100.00
11672;BME280;5892;43.412;24.612;2022-12-07T11:40:01;99829.53;;;9.20;100.00
11672;BME280;5892;43.412;24.612;2022-12-07T11:42:35;99818.78;;;9.01;100.00
11672;BME280;5892;43.412;24.612;2022-12-07T11:45:10;99806.28;;;8.78;100.00
11672;BME280;5892;43.412;24.612;2022-12-07T11:47:45;99814.22;;;8.88;100.00
11672;BME280;5892;43.412;24.612;2022-12-07T11:50:32;99809.22;;;8.90;100.00
11672;BME280;5892;43.412;24.612;2022-12-07T11:53:02;99811.31;;;8.84;100.00
11672;BME280;5892;43.412;24.612;2022-12-07T11:55:40;99815.38;;;8.96;100.00
11672;BME280;5892;43.412;24.612;2022-12-07T11:58:20;99819.16;;;9.08;100.00
11672;BME280;5892;43.412;24.612;2022-12-07T12:00:51;99821.34;;;8.98;100.00
11672;BME280;5892;43.412;24.612;2022-12-07T12:03:28;99783.88;;;8.89;100.00
11672;BME280;5892;43.412;24.612;2022-12-07T12:05:57;99796.25;;;8.96;100.00
11672;BME280;5892;43.412;24.612;2022-12-07T12:08:28;99802.06;;;8.94;100.00
11672;BME280;5892;43.412;24.612;2022-12-07T12:11:02;99753.31;;;8.65;100.00
11672;BME280;5892;43.412;24.612;2022-12-07T12:14:02;99782.16;;;8.80;100.00
11672;BME280;5892;43.412;24.612;2022-12-07T12:19:36;99787.84;;;8.83;100.00
11672;BME280;5892;43.412;24.612;2022-12-07T12:22:12;99748.63;;;8.57;100.00
11672;BME280;5892;43.412;24.612;2022-12-07T12:24:42;99785.03;;;8.75;100.00
11672;BME280;5892;43.412;24.612;2022-12-07T12:27:18;99731.59;;;8.38;100.00
11672;BME280;5892;43.412;24.612;2022-12-07T12:29:53;99762.63;;;8.64;100.00
11672;BME280;5892;43.412;24.612;2022-12-07T12:32:22;99773.06;;;8.62;100.00
11672;BME280;5892;43.412;24.612;2022-12-07T12:35:02;99767.34;;;8.72;100.00
11672;BME280;5892;43.412;24.612;2022-12-07T12:37:43;99752.88;;;8.72;100.00
11672;BME280;5892;43.412;24.612;2022-12-07T12:40:41;99757.28;;;8.81;100.00
11672;BME280;5892;43.412;24.612;2022-12-07T12:46:46;99709.75;;;8.38;100.00
11672;BME280;5892;43.412;24.612;2022-12-07T12:49:33;99771.69;;;8.73;100.00
11672;BME280;5892;43.412;24.612;2022-12-07T12:55:15;99782.88;;;8.63;100.00
11672;BME280;5892;43.412;24.612;2022-12-07T12:57:47;99740.03;;;8.50;100.00
11672;BME280;5892;43.412;24.612;2022-12-07T13:00:19;99771.50;;;8.70;100.00
11672;BME280;5892;43.412;24.612;2022-12-07T13:02:50;99771.88;;;8.77;100.00
11672;BME280;5892;43.412;24.612;2022-12-07T13:05:20;99763.84;;;8.80;100.00
11672;BME280;5892;43.412;24.612;2022-12-07T13:07:56;99778.53;;;8.62;100.00
11672;BME280;5892;43.412;24.612;2022-12-07T13:10:39;99768.97;;;8.51;100.00
11672;BME280;5892;43.412;24.612;2022-12-07T13:13:31;99765.84;;;8.44;100.00
11672;BME280;5892;43.412;24.612;2022-12-07T13:16:36;99769.50;;;8.39;100.00
11672;BME280;5892;43.412;24.612;2022-12-07T13:22:39;99735.63;;;8.04;100.00
11672;BME280;5892;43.412;24.612;2022-12-07T13:25:11;99753.88;;;8.31;100.00